Latest Weather Observations for Lajamanu

IDD60801

Issued at 8:01 pm CST Monday 24 July 2017 (issued every 30 minutes, with the page automatically refreshed every 10 minutes)

About weather observations | Map of weather stations | Latest weather observations for NT | Other Formats
Station Details ID: 014829 Name: LAJAMANU AIRPORT Lat: -18.33 Lon: 130.64 Height: 315.6 m
Data from the previous 72 hours. | See also: Recent months at Lajamanu
Date/Time
CST
Temp
°C
App
Temp
°C
Dew
Point
°C
Rel
Hum
%
Delta-T
°C
Wind Press
QNH
hPa
Press
MSL
hPa
Rain since
9am
mm
Dir  Spd
km/h
Gust
km/h
Spd
kts
Gust
kts
24/08:00pm 19.0 13.8 -6.6 17 9.9 SE 13 15 7 8 1017.4 1016.6 0.0
24/07:30pm 17.8 12.9 -7.5 17 9.5 SE 11 13 6 7 1017.1 1016.3 0.0
24/07:00pm 19.6 14.9 -8.6 14 10.6 SE 9 13 5 7 1016.9 1016.1 0.0
24/06:30pm 23.2 18.1 -8.9 11 12.5 SE 11 15 6 8 1016.6 1015.8 0.0
24/06:00pm 25.6 19.3 -9.6 9 13.8 SE 17 20 9 11 1016.4 1015.6 0.0
24/05:30pm 26.8 20.2 -8.7 9 14.3 SE 19 26 10 14 1016.2 1015.4 0.0
24/05:00pm 27.4 20.8 -9.7 8 14.8 SE 19 26 10 14 1016.0 1015.3 0.0
24/04:30pm 27.9 20.6 -11.0 7 15.3 ESE 22 32 12 17 1016.0 1015.3 0.0
24/04:00pm 28.0 21.2 -9.3 8 15.1 ESE 20 35 11 19 1016.0 1015.3 0.0
24/03:30pm 28.3 21.6 -10.7 7 15.4 SE 19 30 10 16 1016.2 1015.4 0.0
24/03:00pm 28.4 22.2 -9.0 8 15.3 ESE 17 28 9 15 1016.5 1015.7 0.0
24/02:30pm 28.0 21.2 -9.3 8 15.1 SE 20 33 11 18 1016.9 1016.1 0.0
24/02:00pm 28.2 20.8 -7.6 9 15.0 ESE 24 35 13 19 1017.3 1016.5 0.0
24/01:30pm 27.6 20.9 -8.1 9 14.7 ESE 20 32 11 17 1017.7 1016.9 0.0
24/01:00pm 27.5 20.4 -8.2 9 14.7 ESE 22 35 12 19 1018.4 1017.7 0.0
24/12:30pm 26.3 18.9 -7.7 10 13.9 SE 24 35 13 19 1019.1 1018.4 0.0
24/12:00pm 25.7 18.3 -6.9 11 13.5 ESE 24 41 13 22 1019.8 1019.0 0.0
24/11:30am 25.3 18.1 -5.1 13 12.9 ESE 24 32 13 17 1020.4 1019.6 0.0
24/11:00am 24.4 16.8 -5.8 13 12.6 ESE 26 41 14 22 1020.8 1020.0 0.0
24/10:30am 22.9 14.9 -6.0 14 11.8 ESE 28 39 15 21 1021.0 1020.2 0.0
24/10:00am 21.6 15.4 -3.0 19 10.6 ESE 20 32 11 17 1021.1 1020.4 0.0
24/09:30am 20.3 14.3 -1.5 23 9.5 ESE 20 30 11 16 1021.0 1020.2 0.0
24/09:00am 16.9 12.5 0.1 32 7.3 ESE 13 17 7 9 1020.7 1019.9 0.0
24/08:30am 13.1 10.9 1.1 44 5.2 SSE 2 9 1 5 1020.3 1019.5 0.0
24/08:00am 9.0 6.3 2.8 65 2.7 SE 6 6 3 3 1020.1 1019.3 0.0
24/07:30am 7.3 4.3 1.0 64 2.6 SE 6 7 3 4 1019.7 1018.9 0.0
24/07:00am 7.9 4.8 0.2 58 3.1 ESE 6 7 3 4 1019.0 1018.3 0.0
24/06:30am 8.6 5.3 0.3 56 3.4 SE 7 9 4 5 1018.8 1018.1 0.0
24/06:00am 9.2 5.5 0.1 53 3.7 SE 9 11 5 6 1018.6 1017.9 0.0
24/05:30am 10.3 6.7 0.3 50 4.1 ESE 9 11 5 6 1018.4 1017.7 0.0
24/05:00am 10.5 6.8 0.0 48 4.3 ESE 9 11 5 6 1018.4 1017.7 0.0
24/04:30am 11.1 7.5 0.5 48 4.4 SE 9 11 5 6 1018.2 1017.4 0.0
24/04:00am 10.7 7.1 0.4 49 4.3 SE 9 11 5 6 1018.2 1017.4 0.0
24/03:30am 11.4 7.8 0.8 48 4.5 SE 9 11 5 6 1018.1 1017.3 0.0
24/03:00am 10.9 7.6 -0.2 46 4.6 SE 7 9 4 5 1018.1 1017.3 0.0
24/02:30am 11.1 7.7 -0.7 44 4.8 SSE 7 9 4 5 1018.2 1017.4 0.0
24/02:00am 13.1 10.7 -0.5 39 5.7 SSE 2 9 1 5 1018.3 1017.5 0.0
24/01:30am 13.9 10.1 -0.5 37 6.0 SSE 9 15 5 8 1018.1 1017.3 0.0
24/01:00am 13.8 10.1 -0.3 38 6.0 SE 9 11 5 6 1018.3 1017.5 0.0
24/12:30am 14.2 10.3 -1.8 33 6.5 SE 9 11 5 6 1018.3 1017.5 0.0
24/12:00am 15.8 11.9 -1.3 31 7.2 SE 9 15 5 8 1018.3 1017.5 0.0
 
Date/Time
CST
Temp
°C
App
Temp
°C
Dew
Point
°C
Rel
Hum
%
Delta-T
°C
Wind Press
QNH
hPa
Press
MSL
hPa
Rain since
9am
mm
Dir  Spd
km/h
Gust
km/h
Spd
kts
Gust
kts
23/11:30pm 16.2 12.3 -1.4 30 7.4 SE 9 13 5 7 1018.4 1017.7 0.0
23/11:00pm 17.0 12.7 -1.6 28 7.9 SE 11 15 6 8 1018.4 1017.7 0.0
23/10:30pm 18.2 14.0 -1.1 27 8.3 SE 11 15 6 8 1018.3 1017.5 0.0
23/10:00pm 17.9 13.6 -1.9 26 8.4 SE 11 13 6 7 1018.2 1017.4 0.0
23/09:30pm 17.8 13.9 -1.4 27 8.2 SE 9 13 5 7 1018.2 1017.4 0.0
23/09:00pm 18.7 14.4 -1.7 25 8.7 SE 11 13 6 7 1018.2 1017.4 0.0
23/08:30pm 18.7 14.4 -1.7 25 8.7 SE 11 15 6 8 1017.9 1017.1 0.0
23/08:00pm 18.1 14.2 -1.7 26 8.5 SE 9 13 5 7 1017.7 1016.9 0.0
23/07:30pm 19.1 15.5 -1.9 24 9.0 SSE 7 9 4 5 1017.3 1016.5 0.0
23/07:00pm 21.1 17.4 -2.7 20 10.2 SSE 7 9 4 5 1017.0 1016.2 0.0
23/06:30pm 23.4 18.9 -3.0 17 11.5 SE 11 15 6 8 1016.6 1015.8 0.0
23/06:00pm 24.6 19.7 -3.7 15 12.3 SE 13 19 7 10 1016.2 1015.4 0.0
23/05:30pm 25.9 19.7 -4.6 13 13.2 SE 19 26 10 14 1016.0 1015.3 0.0
23/05:00pm 26.1 19.9 -4.4 13 13.3 SE 19 26 10 14 1015.9 1015.2 0.0
23/04:30pm 27.2 20.8 -4.6 12 13.9 ESE 20 32 11 17 1015.9 1015.2 0.0
23/04:00pm 27.7 21.0 -4.3 12 14.1 ESE 22 32 12 17 1015.9 1015.2 0.0
23/03:30pm 28.7 22.1 -3.5 12 14.5 ESE 22 32 12 17 1016.2 1015.4 0.0
23/03:00pm 28.6 22.3 -3.6 12 14.5 ESE 20 32 11 17 1016.5 1015.7 0.0
23/02:30pm 28.5 21.9 -3.6 12 14.4 ESE 22 32 12 17 1017.0 1016.2 0.0
23/02:00pm 26.7 20.0 -4.0 13 13.5 ESE 22 33 12 18 1017.5 1016.7 0.0
23/01:30pm 26.9 19.9 -3.8 13 13.6 ESE 24 32 13 17 1018.0 1017.2 0.0
23/01:00pm 27.1 18.6 -3.7 13 13.7 ESE 32 46 17 25 1018.6 1017.9 0.0
23/12:30pm 27.6 20.7 -2.3 14 13.6 ESE 24 33 13 18 1019.1 1018.4 0.0
23/12:00pm 26.4 18.4 -2.3 15 13.0 ESE 30 39 16 21 1019.8 1019.0 0.0
23/11:30am 26.1 19.7 -1.7 16 12.7 ESE 22 41 12 22 1020.2 1019.4 0.0
23/11:00am 24.6 16.7 -1.3 18 11.8 ESE 30 44 16 24 1020.4 1019.6 0.0
23/10:30am 23.8 17.9 -0.5 20 11.1 ESE 20 32 11 17 1020.7 1019.9 0.0
23/10:00am 22.1 16.3 -1.2 21 10.4 ESE 19 30 10 16 1020.8 1020.0 0.0
23/09:30am 20.5 15.0 0.4 26 9.1 E 19 26 10 14 1020.7 1019.9 0.0
23/09:00am 17.5 13.3 1.5 34 7.2 ESE 13 17 7 9 1020.5 1019.7 0.0
23/08:30am 14.1 10.8 2.4 45 5.2 SE 9 11 5 6 1020.2 1019.4 0.0
23/08:26am 13.8 10.5 2.7 47 5.0 SE 9 11 5 6 1020.2 1019.4 0.0
23/08:00am 8.8 6.0 3.4 69 2.4 ESE 7 7 4 4 1019.9 1019.1 0.0
23/07:30am 7.2 5.5 1.7 68 2.3 CALM 0 0 0 0 1019.6 1018.8 0.0
23/07:00am 8.4 6.8 2.4 66 2.6 CALM 0 0 0 0 1019.3 1018.6 0.0
23/06:30am 8.2 5.4 2.2 66 2.5 SE 6 7 3 4 1019.1 1018.4 0.0
23/06:00am 8.2 5.1 1.4 62 2.8 SE 7 7 4 4 1019.0 1018.3 0.0
23/05:30am 8.4 5.5 1.6 62 2.8 SSE 6 7 3 4 1018.9 1018.2 0.0
23/05:00am 9.4 7.2 0.8 55 3.6 ESE 2 6 1 3 1018.8 1018.1 0.0
23/04:30am 10.7 7.6 -0.1 47 4.4 ESE 6 7 3 4 1018.7 1018.0 0.0
23/04:00am 12.4 9.1 0.2 43 5.1 ESE 7 9 4 5 1018.8 1018.1 0.0
23/03:30am 12.8 9.2 0.5 43 5.2 ESE 9 13 5 7 1018.9 1018.2 0.0
23/03:00am 13.5 9.9 0.9 42 5.4 ESE 9 13 5 7 1018.9 1018.2 0.0
23/02:30am 12.0 8.8 0.5 45 4.8 SE 7 11 4 6 1019.0 1018.3 0.0
23/02:00am 12.6 9.0 0.7 44 5.1 SE 9 13 5 7 1019.3 1018.6 0.0
23/01:30am 12.2 8.8 -0.3 42 5.2 ESE 7 9 4 5 1019.3 1018.6 0.0
23/01:00am 13.2 9.4 -0.4 39 5.7 ESE 9 9 5 5 1019.5 1018.7 0.0
23/12:30am 14.1 10.4 0.0 38 6.0 ESE 9 11 5 6 1019.2 1018.5 0.0
23/12:00am 13.9 9.8 -0.2 38 6.0 ESE 11 13 6 7 1019.2 1018.5 0.0
 
Date/Time
CST
Temp
°C
App
Temp
°C
Dew
Point
°C
Rel
Hum
%
Delta-T
°C
Wind Press
QNH
hPa
Press
MSL
hPa
Rain since
9am
mm
Dir  Spd
km/h
Gust
km/h
Spd
kts
Gust
kts
22/11:30pm 13.4 9.6 -1.0 37 5.9 SE 9 9 5 5 1019.2 1018.5 0.0
22/11:00pm 14.4 10.5 -1.2 34 6.5 ESE 9 11 5 6 1019.1 1018.4 0.0
22/10:30pm 14.9 11.1 -0.8 34 6.6 ESE 9 11 5 6 1019.0 1018.3 0.0
22/10:00pm 14.5 10.6 -1.2 34 6.5 ESE 9 11 5 6 1018.9 1018.2 0.0
22/09:30pm 14.5 11.0 -1.6 33 6.6 SE 7 9 4 5 1018.8 1018.1 0.0
22/09:00pm 15.8 11.9 -1.3 31 7.2 ESE 9 11 5 6 1018.6 1017.9 0.0
22/08:30pm 16.0 12.2 -1.1 31 7.2 SE 9 9 5 5 1018.2 1017.4 0.0
22/08:00pm 16.5 12.7 -1.1 30 7.5 SE 9 11 5 6 1017.7 1016.9 0.0
22/07:30pm 17.6 13.7 -1.6 27 8.2 SE 9 9 5 5 1017.4 1016.6 0.0
22/07:00pm 19.7 15.7 -2.0 23 9.3 ESE 9 9 5 5 1017.1 1016.3 0.0
22/06:30pm 23.1 19.1 -2.5 18 11.2 ESE 9 13 5 7 1016.7 1015.9 0.0
22/06:00pm 25.2 19.9 -3.2 15 12.5 ESE 15 22 8 12 1016.4 1015.6 0.0
22/05:30pm 26.6 21.5 -2.1 15 13.1 SE 15 22 8 12 1016.4 1015.6 0.0
22/05:00pm 27.2 22.0 -2.6 14 13.5 ESE 15 24 8 13 1016.3 1015.5 0.0
22/04:30pm 27.8 21.9 -2.1 14 13.7 ESE 19 26 10 14 1016.3 1015.5 0.0
22/04:00pm 28.0 22.4 -3.0 13 14.0 SE 17 20 9 11 1016.4 1015.6 0.0
22/03:30pm 28.0 22.1 -2.0 14 13.8 ESE 19 28 10 15 1016.6 1015.8 0.0
22/03:00pm 27.6 21.7 -2.3 14 13.7 ESE 19 28 10 15 1016.8 1016.0 0.0
22/02:30pm 27.9 22.0 -2.0 14 13.8 ESE 19 26 10 14 1017.2 1016.4 0.0
22/02:00pm 26.3 20.1 -3.3 14 13.2 ESE 20 30 11 16 1017.8 1017.0 0.0
22/01:30pm 26.4 19.9 -2.3 15 13.0 ESE 22 32 12 17 1018.4 1017.7 0.0
22/01:00pm 26.1 19.8 -0.8 17 12.5 ESE 22 33 12 18 1018.7 1018.0 0.0
22/12:30pm 25.5 19.8 -0.5 18 12.1 E 19 30 10 16 1019.3 1018.6 0.0
22/12:00pm 25.0 19.8 -0.2 19 11.7 E 17 28 9 15 1019.8 1019.0 0.0
22/11:30am 24.2 18.5 0.5 21 11.1 E 20 30 11 16 1020.2 1019.4 0.0
22/11:00am 23.6 18.2 1.3 23 10.6 E 19 28 10 15 1020.5 1019.7 0.0
22/10:30am 21.6 16.5 0.8 25 9.6 E 17 20 9 11 1020.7 1019.9 0.0
22/10:00am 21.0 15.6 1.3 27 9.2 E 19 24 10 13 1020.7 1019.9 0.0
22/09:30am 18.7 13.7 1.2 31 7.9 E 17 24 9 13 1020.5 1019.7 0.0
22/09:00am 16.9 12.5 2.9 39 6.5 E 15 24 8 13 1020.4 1019.6 0.0
22/08:30am 12.7 10.3 4.4 57 3.8 SE 6 9 3 5 1020.0 1019.2 0.0
22/08:00am 8.7 6.7 4.5 75 1.9 ESE 4 7 2 4 1019.5 1018.7 0.0
22/07:30am 6.5 3.8 2.8 77 1.6 SE 6 7 3 4 1019.1 1018.4 0.0
22/07:00am 6.4 4.8 2.5 76 1.6 CALM 0 0 0 0 1018.8 1018.1 0.0
22/06:30am 6.5 4.9 2.4 75 1.7 CALM 0 0 0 0 1018.6 1017.9 0.0
22/06:00am 7.1 4.4 2.4 72 2.0 SE 6 6 3 3 1018.3 1017.5 0.0
22/05:30am 7.4 4.4 1.9 68 2.3 ESE 7 9 4 5 1018.2 1017.4 0.0
22/05:00am 7.5 5.5 2.2 69 2.2 SE 2 6 1 3 1018.3 1017.5 0.0
22/04:30am 8.2 5.2 0.9 60 3.0 ESE 6 7 3 4 1018.3 1017.5 0.0
22/04:00am 8.5 5.4 1.4 61 3.0 ESE 7 9 4 5 1018.2 1017.4 0.0
22/03:30am 8.5 5.6 1.6 62 2.9 SE 6 7 3 4 1018.4 1017.7 0.0
22/03:00am 9.0 6.4 1.0 57 3.3 SE 4 6 2 3 1018.6 1017.9 0.0
22/02:30am 9.6 6.7 1.3 56 3.5 SE 6 6 3 3 1018.6 1017.9 0.0
22/02:00am 10.1 7.2 1.5 55 3.7 SSE 6 9 3 5 1018.7 1018.0 0.0
22/01:30am 10.4 7.3 1.2 53 3.9 SE 7 11 4 6 1018.9 1018.2 0.0
22/01:00am 11.4 8.1 -0.1 45 4.8 ESE 7 9 4 5 1019.0 1018.3 0.0
22/12:30am 12.3 9.0 -0.2 42 5.2 ESE 7 9 4 5 1019.1 1018.4 0.0
22/12:00am 13.2 9.6 0.3 41 5.5 ESE 9 11 5 6 1019.5 1018.7 0.0
 
Date/Time
CST
Temp
°C
App
Temp
°C
Dew
Point
°C
Rel
Hum
%
Delta-T
°C
Wind Press
QNH
hPa
Press
MSL
hPa
Rain since
9am
mm
Dir  Spd
km/h
Gust
km/h
Spd
kts
Gust
kts
21/11:30pm 14.4 10.6 -0.8 35 6.4 ESE 9 9 5 5 1019.3 1018.6 0.0
21/11:00pm 16.0 11.9 -0.2 33 7.0 ESE 11 13 6 7 1019.5 1018.7 0.0
21/10:30pm 16.4 12.7 0.1 33 7.1 SE 9 13 5 7 1019.6 1018.8 0.0
21/10:00pm 15.6 12.0 0.6 36 6.6 SE 9 13 5 7 1019.3 1018.6 0.0
21/09:30pm 14.3 10.6 0.2 38 6.0 SE 9 11 5 6 1019.1 1018.4 0.0
21/09:00pm 14.0 10.3 -0.1 38 6.0 SE 9 9 5 5 1018.8 1018.1 0.0
21/08:30pm 14.3 11.0 -0.2 37 6.2 SE 7 9 4 5 1018.5 1017.8 0.0

Other Formats:

Comma delimited format used in spreadsheet applications
http://www.bom.gov.au/fwo/IDD60801/IDD60801.94231.axf

JavaScript Object Notation format (JSON) in row-major order
http://www.bom.gov.au/fwo/IDD60801/IDD60801.94231.json